sensor_id;sensor_type;location;lat;lon;timestamp;P1;durP1;ratioP1;P2;durP2;ratioP2
74245;SDS011;62601;51.044;13.788;2022-12-18T00:01:29;43.55;;;20.80;;
74245;SDS011;62601;51.044;13.788;2022-12-18T00:03:55;41.28;;;20.65;;
74245;SDS011;62601;51.044;13.788;2022-12-18T00:06:18;49.83;;;21.80;;
74245;SDS011;62601;51.044;13.788;2022-12-18T00:08:40;40.58;;;21.65;;
74245;SDS011;62601;51.044;13.788;2022-12-18T00:11:05;43.15;;;21.52;;
74245;SDS011;62601;51.044;13.788;2022-12-18T00:13:26;40.45;;;21.30;;
74245;SDS011;62601;51.044;13.788;2022-12-18T00:15:48;42.63;;;22.30;;
74245;SDS011;62601;51.044;13.788;2022-12-18T00:18:09;43.30;;;20.35;;
74245;SDS011;62601;51.044;13.788;2022-12-18T00:20:29;42.63;;;21.60;;
74245;SDS011;62601;51.044;13.788;2022-12-18T00:22:52;44.45;;;24.23;;
74245;SDS011;62601;51.044;13.788;2022-12-18T00:25:15;37.60;;;20.42;;
74245;SDS011;62601;51.044;13.788;2022-12-18T00:27:36;39.58;;;20.75;;
74245;SDS011;62601;51.044;13.788;2022-12-18T00:29:57;40.63;;;22.15;;
74245;SDS011;62601;51.044;13.788;2022-12-18T00:32:18;40.63;;;21.52;;
74245;SDS011;62601;51.044;13.788;2022-12-18T00:34:40;34.22;;;18.33;;
74245;SDS011;62601;51.044;13.788;2022-12-18T00:37:01;42.10;;;21.05;;
74245;SDS011;62601;51.044;13.788;2022-12-18T00:39:22;42.42;;;20.95;;
74245;SDS011;62601;51.044;13.788;2022-12-18T00:41:45;39.53;;;19.80;;
74245;SDS011;62601;51.044;13.788;2022-12-18T00:44:06;42.05;;;20.30;;
74245;SDS011;62601;51.044;13.788;2022-12-18T00:46:28;42.85;;;19.48;;
74245;SDS011;62601;51.044;13.788;2022-12-18T00:48:50;36.90;;;18.73;;
74245;SDS011;62601;51.044;13.788;2022-12-18T00:51:10;32.25;;;18.73;;
74245;SDS011;62601;51.044;13.788;2022-12-18T00:53:31;42.08;;;20.38;;
74245;SDS011;62601;51.044;13.788;2022-12-18T00:55:53;32.83;;;18.48;;
74245;SDS011;62601;51.044;13.788;2022-12-18T00:58:16;34.30;;;18.00;;
74245;SDS011;62601;51.044;13.788;2022-12-18T01:00:37;35.33;;;16.77;;
74245;SDS011;62601;51.044;13.788;2022-12-18T01:02:58;32.47;;;16.98;;
74245;SDS011;62601;51.044;13.788;2022-12-18T01:05:22;33.03;;;17.52;;
74245;SDS011;62601;51.044;13.788;2022-12-18T01:07:44;35.15;;;16.15;;
74245;SDS011;62601;51.044;13.788;2022-12-18T01:10:06;33.22;;;17.42;;
74245;SDS011;62601;51.044;13.788;2022-12-18T01:12:27;26.90;;;15.57;;
74245;SDS011;62601;51.044;13.788;2022-12-18T01:14:49;33.55;;;17.90;;
74245;SDS011;62601;51.044;13.788;2022-12-18T01:17:10;30.45;;;15.82;;
74245;SDS011;62601;51.044;13.788;2022-12-18T01:19:32;29.20;;;16.40;;
74245;SDS011;62601;51.044;13.788;2022-12-18T01:21:53;30.25;;;16.35;;
74245;SDS011;62601;51.044;13.788;2022-12-18T01:24:14;32.47;;;15.90;;
74245;SDS011;62601;51.044;13.788;2022-12-18T01:26:36;32.20;;;15.70;;
74245;SDS011;62601;51.044;13.788;2022-12-18T01:28:56;32.70;;;15.77;;
74245;SDS011;62601;51.044;13.788;2022-12-18T01:31:21;34.25;;;15.95;;
74245;SDS011;62601;51.044;13.788;2022-12-18T01:33:43;27.05;;;13.75;;
74245;SDS011;62601;51.044;13.788;2022-12-18T01:36:04;27.02;;;14.48;;
74245;SDS011;62601;51.044;13.788;2022-12-18T01:38:26;26.13;;;14.05;;
74245;SDS011;62601;51.044;13.788;2022-12-18T01:40:58;26.40;;;13.48;;
74245;SDS011;62601;51.044;13.788;2022-12-18T01:43:20;26.08;;;14.30;;
74245;SDS011;62601;51.044;13.788;2022-12-18T01:45:41;31.70;;;14.30;;
74245;SDS011;62601;51.044;13.788;2022-12-18T01:48:07;30.85;;;14.57;;
74245;SDS011;62601;51.044;13.788;2022-12-18T01:50:38;28.60;;;15.30;;
74245;SDS011;62601;51.044;13.788;2022-12-18T01:53:07;27.52;;;14.48;;
74245;SDS011;62601;51.044;13.788;2022-12-18T01:55:32;31.25;;;14.30;;
74245;SDS011;62601;51.044;13.788;2022-12-18T01:57:56;28.70;;;13.60;;
74245;SDS011;62601;51.044;13.788;2022-12-18T02:00:19;32.47;;;14.25;;
74245;SDS011;62601;51.044;13.788;2022-12-18T02:02:44;26.33;;;13.38;;
74245;SDS011;62601;51.044;13.788;2022-12-18T02:05:06;26.05;;;13.60;;
74245;SDS011;62601;51.044;13.788;2022-12-18T02:07:49;24.50;;;12.18;;
74245;SDS011;62601;51.044;13.788;2022-12-18T02:18:03;23.50;;;12.10;;
74245;SDS011;62601;51.044;13.788;2022-12-18T02:20:43;23.45;;;12.40;;
74245;SDS011;62601;51.044;13.788;2022-12-18T02:28:23;19.00;;;10.27;;
74245;SDS011;62601;51.044;13.788;2022-12-18T02:30:47;20.65;;;10.30;;
74245;SDS011;62601;51.044;13.788;2022-12-18T02:33:10;21.30;;;10.30;;
74245;SDS011;62601;51.044;13.788;2022-12-18T02:35:32;20.83;;;11.48;;
74245;SDS011;62601;51.044;13.788;2022-12-18T02:37:54;20.17;;;10.80;;
74245;SDS011;62601;51.044;13.788;2022-12-18T02:40:16;20.55;;;10.15;;
74245;SDS011;62601;51.044;13.788;2022-12-18T02:42:37;20.08;;;11.13;;
74245;SDS011;62601;51.044;13.788;2022-12-18T02:44:57;23.63;;;11.85;;
74245;SDS011;62601;51.044;13.788;2022-12-18T02:47:20;21.15;;;11.23;;
74245;SDS011;62601;51.044;13.788;2022-12-18T02:52:41;22.50;;;10.80;;
74245;SDS011;62601;51.044;13.788;2022-12-18T02:57:46;23.30;;;11.10;;
74245;SDS011;62601;51.044;13.788;2022-12-18T03:00:18;24.50;;;12.20;;
74245;SDS011;62601;51.044;13.788;2022-12-18T03:02:53;22.45;;;11.52;;
74245;SDS011;62601;51.044;13.788;2022-12-18T03:05:20;19.63;;;10.93;;
74245;SDS011;62601;51.044;13.788;2022-12-18T03:08:02;17.73;;;10.23;;
74245;SDS011;62601;51.044;13.788;2022-12-18T03:10:26;22.50;;;10.57;;
74245;SDS011;62601;51.044;13.788;2022-12-18T03:12:55;24.45;;;10.40;;
74245;SDS011;62601;51.044;13.788;2022-12-18T03:15:28;19.30;;;9.50;;
74245;SDS011;62601;51.044;13.788;2022-12-18T03:18:04;23.58;;;10.32;;
74245;SDS011;62601;51.044;13.788;2022-12-18T03:20:28;18.55;;;9.57;;
74245;SDS011;62601;51.044;13.788;2022-12-18T03:23:00;18.75;;;9.02;;
74245;SDS011;62601;51.044;13.788;2022-12-18T03:25:22;18.38;;;10.23;;
74245;SDS011;62601;51.044;13.788;2022-12-18T03:27:45;18.42;;;8.73;;
74245;SDS011;62601;51.044;13.788;2022-12-18T03:30:08;18.58;;;8.40;;
74245;SDS011;62601;51.044;13.788;2022-12-18T03:32:31;14.80;;;8.32;;
74245;SDS011;62601;51.044;13.788;2022-12-18T03:35:03;15.50;;;7.90;;
74245;SDS011;62601;51.044;13.788;2022-12-18T03:37:25;16.00;;;9.48;;
74245;SDS011;62601;51.044;13.788;2022-12-18T03:39:47;14.68;;;7.47;;
74245;SDS011;62601;51.044;13.788;2022-12-18T03:48:11;17.00;;;7.88;;
74245;SDS011;62601;51.044;13.788;2022-12-18T03:53:02;16.05;;;7.55;;
74245;SDS011;62601;51.044;13.788;2022-12-18T03:55:26;14.98;;;7.47;;
74245;SDS011;62601;51.044;13.788;2022-12-18T03:57:47;16.52;;;8.30;;
74245;SDS011;62601;51.044;13.788;2022-12-18T04:00:11;13.68;;;6.78;;
74245;SDS011;62601;51.044;13.788;2022-12-18T04:02:33;14.70;;;7.47;;
74245;SDS011;62601;51.044;13.788;2022-12-18T04:04:56;15.70;;;8.20;;
74245;SDS011;62601;51.044;13.788;2022-12-18T04:07:20;15.85;;;8.07;;
74245;SDS011;62601;51.044;13.788;2022-12-18T04:09:41;11.05;;;6.93;;
74245;SDS011;62601;51.044;13.788;2022-12-18T04:12:03;12.68;;;6.80;;
74245;SDS011;62601;51.044;13.788;2022-12-18T04:14:24;15.25;;;7.20;;
74245;SDS011;62601;51.044;13.788;2022-12-18T04:16:45;14.90;;;7.40;;
74245;SDS011;62601;51.044;13.788;2022-12-18T04:19:05;14.55;;;7.20;;
74245;SDS011;62601;51.044;13.788;2022-12-18T04:21:27;14.23;;;7.43;;
74245;SDS011;62601;51.044;13.788;2022-12-18T04:23:47;15.88;;;7.03;;
74245;SDS011;62601;51.044;13.788;2022-12-18T04:26:07;14.70;;;6.97;;
74245;SDS011;62601;51.044;13.788;2022-12-18T04:28:28;13.70;;;7.68;;
74245;SDS011;62601;51.044;13.788;2022-12-18T04:30:50;12.45;;;7.88;;
74245;SDS011;62601;51.044;13.788;2022-12-18T04:33:10;15.63;;;7.70;;
74245;SDS011;62601;51.044;13.788;2022-12-18T04:35:31;18.15;;;8.52;;
74245;SDS011;62601;51.044;13.788;2022-12-18T04:37:52;15.40;;;8.35;;
74245;SDS011;62601;51.044;13.788;2022-12-18T04:40:12;14.80;;;7.85;;
74245;SDS011;62601;51.044;13.788;2022-12-18T04:42:33;14.60;;;7.72;;
74245;SDS011;62601;51.044;13.788;2022-12-18T04:44:55;13.50;;;6.65;;
74245;SDS011;62601;51.044;13.788;2022-12-18T04:47:15;13.40;;;6.68;;
74245;SDS011;62601;51.044;13.788;2022-12-18T04:49:36;13.50;;;7.07;;
74245;SDS011;62601;51.044;13.788;2022-12-18T04:51:57;14.52;;;7.22;;
74245;SDS011;62601;51.044;13.788;2022-12-18T04:54:18;12.88;;;6.63;;
74245;SDS011;62601;51.044;13.788;2022-12-18T04:56:38;12.20;;;7.00;;
74245;SDS011;62601;51.044;13.788;2022-12-18T04:58:59;10.38;;;6.35;;
74245;SDS011;62601;51.044;13.788;2022-12-18T05:01:21;15.60;;;7.05;;
74245;SDS011;62601;51.044;13.788;2022-12-18T05:03:41;14.70;;;7.13;;
74245;SDS011;62601;51.044;13.788;2022-12-18T05:06:01;11.50;;;6.07;;
74245;SDS011;62601;51.044;13.788;2022-12-18T05:08:23;12.40;;;6.32;;
74245;SDS011;62601;51.044;13.788;2022-12-18T05:10:45;12.50;;;6.90;;
74245;SDS011;62601;51.044;13.788;2022-12-18T05:13:05;11.98;;;7.25;;
74245;SDS011;62601;51.044;13.788;2022-12-18T05:15:30;12.85;;;6.97;;
74245;SDS011;62601;51.044;13.788;2022-12-18T05:17:51;14.85;;;7.30;;
74245;SDS011;62601;51.044;13.788;2022-12-18T05:20:11;13.65;;;6.80;;
74245;SDS011;62601;51.044;13.788;2022-12-18T05:22:33;12.25;;;7.05;;
74245;SDS011;62601;51.044;13.788;2022-12-18T05:24:56;13.63;;;7.00;;
74245;SDS011;62601;51.044;13.788;2022-12-18T05:27:16;10.57;;;6.10;;
74245;SDS011;62601;51.044;13.788;2022-12-18T05:29:36;11.48;;;6.68;;
74245;SDS011;62601;51.044;13.788;2022-12-18T05:31:58;13.18;;;6.65;;
74245;SDS011;62601;51.044;13.788;2022-12-18T05:34:18;12.57;;;6.78;;
74245;SDS011;62601;51.044;13.788;2022-12-18T05:36:39;14.13;;;6.85;;
74245;SDS011;62601;51.044;13.788;2022-12-18T05:38:59;10.95;;;6.35;;
74245;SDS011;62601;51.044;13.788;2022-12-18T05:41:19;12.70;;;6.13;;
74245;SDS011;62601;51.044;13.788;2022-12-18T05:43:40;17.30;;;8.15;;
74245;SDS011;62601;51.044;13.788;2022-12-18T05:46:05;12.48;;;6.63;;
74245;SDS011;62601;51.044;13.788;2022-12-18T05:48:26;11.23;;;6.40;;
74245;SDS011;62601;51.044;13.788;2022-12-18T05:50:46;14.80;;;7.10;;
74245;SDS011;62601;51.044;13.788;2022-12-18T05:53:08;14.20;;;6.90;;
74245;SDS011;62601;51.044;13.788;2022-12-18T05:55:28;10.70;;;6.53;;
74245;SDS011;62601;51.044;13.788;2022-12-18T05:57:48;14.05;;;7.53;;
74245;SDS011;62601;51.044;13.788;2022-12-18T06:00:08;13.73;;;7.32;;
74245;SDS011;62601;51.044;13.788;2022-12-18T06:02:30;14.77;;;7.82;;
74245;SDS011;62601;51.044;13.788;2022-12-18T06:04:50;13.77;;;6.80;;
74245;SDS011;62601;51.044;13.788;2022-12-18T06:07:11;14.07;;;6.95;;
74245;SDS011;62601;51.044;13.788;2022-12-18T06:09:32;20.35;;;8.25;;
74245;SDS011;62601;51.044;13.788;2022-12-18T06:11:53;15.82;;;7.60;;
74245;SDS011;62601;51.044;13.788;2022-12-18T06:14:14;9.68;;;6.03;;
74245;SDS011;62601;51.044;13.788;2022-12-18T06:16:37;15.38;;;6.78;;
74245;SDS011;62601;51.044;13.788;2022-12-18T06:19:00;11.88;;;6.95;;
74245;SDS011;62601;51.044;13.788;2022-12-18T06:21:21;13.70;;;6.88;;
74245;SDS011;62601;51.044;13.788;2022-12-18T06:23:43;12.02;;;6.22;;
74245;SDS011;62601;51.044;13.788;2022-12-18T06:26:08;13.35;;;6.07;;
74245;SDS011;62601;51.044;13.788;2022-12-18T06:28:30;15.55;;;6.93;;
74245;SDS011;62601;51.044;13.788;2022-12-18T06:30:50;12.15;;;6.72;;
74245;SDS011;62601;51.044;13.788;2022-12-18T06:33:11;12.95;;;6.72;;
74245;SDS011;62601;51.044;13.788;2022-12-18T06:35:32;12.55;;;6.85;;
74245;SDS011;62601;51.044;13.788;2022-12-18T06:37:54;16.27;;;6.68;;
74245;SDS011;62601;51.044;13.788;2022-12-18T06:40:15;14.68;;;7.20;;
74245;SDS011;62601;51.044;13.788;2022-12-18T06:42:37;11.38;;;6.88;;
74245;SDS011;62601;51.044;13.788;2022-12-18T06:44:57;14.40;;;6.50;;
74245;SDS011;62601;51.044;13.788;2022-12-18T06:47:18;13.40;;;7.57;;
74245;SDS011;62601;51.044;13.788;2022-12-18T06:49:40;12.88;;;7.10;;
74245;SDS011;62601;51.044;13.788;2022-12-18T06:52:00;15.85;;;8.55;;
74245;SDS011;62601;51.044;13.788;2022-12-18T06:54:24;16.95;;;7.10;;
74245;SDS011;62601;51.044;13.788;2022-12-18T06:56:46;16.08;;;7.32;;
74245;SDS011;62601;51.044;13.788;2022-12-18T06:59:08;15.85;;;8.05;;
74245;SDS011;62601;51.044;13.788;2022-12-18T07:01:29;15.95;;;7.30;;
74245;SDS011;62601;51.044;13.788;2022-12-18T07:03:53;13.40;;;6.97;;
74245;SDS011;62601;51.044;13.788;2022-12-18T07:06:16;12.48;;;6.88;;
74245;SDS011;62601;51.044;13.788;2022-12-18T07:08:38;16.45;;;7.90;;
74245;SDS011;62601;51.044;13.788;2022-12-18T07:10:59;12.68;;;7.00;;
74245;SDS011;62601;51.044;13.788;2022-12-18T07:13:26;12.10;;;7.00;;
74245;SDS011;62601;51.044;13.788;2022-12-18T07:15:47;14.30;;;7.70;;
74245;SDS011;62601;51.044;13.788;2022-12-18T07:18:08;14.82;;;6.85;;
74245;SDS011;62601;51.044;13.788;2022-12-18T07:20:29;11.88;;;6.95;;
74245;SDS011;62601;51.044;13.788;2022-12-18T07:22:50;15.98;;;7.32;;
74245;SDS011;62601;51.044;13.788;2022-12-18T07:25:12;13.82;;;7.57;;
74245;SDS011;62601;51.044;13.788;2022-12-18T07:27:33;14.35;;;7.72;;
74245;SDS011;62601;51.044;13.788;2022-12-18T07:29:55;14.52;;;7.40;;
74245;SDS011;62601;51.044;13.788;2022-12-18T07:32:16;16.70;;;8.93;;
74245;SDS011;62601;51.044;13.788;2022-12-18T07:34:38;13.70;;;7.93;;
74245;SDS011;62601;51.044;13.788;2022-12-18T07:36:59;16.17;;;8.15;;
74245;SDS011;62601;51.044;13.788;2022-12-18T07:39:20;18.08;;;8.85;;
74245;SDS011;62601;51.044;13.788;2022-12-18T07:41:42;15.23;;;7.68;;
74245;SDS011;62601;51.044;13.788;2022-12-18T07:44:02;14.10;;;8.13;;
74245;SDS011;62601;51.044;13.788;2022-12-18T07:46:24;19.85;;;9.05;;
74245;SDS011;62601;51.044;13.788;2022-12-18T07:48:45;16.45;;;8.45;;
74245;SDS011;62601;51.044;13.788;2022-12-18T07:51:07;18.40;;;8.82;;
74245;SDS011;62601;51.044;13.788;2022-12-18T07:53:27;20.58;;;9.80;;
74245;SDS011;62601;51.044;13.788;2022-12-18T07:55:49;17.00;;;8.90;;
74245;SDS011;62601;51.044;13.788;2022-12-18T07:58:09;18.05;;;8.95;;
74245;SDS011;62601;51.044;13.788;2022-12-18T08:00:30;17.08;;;8.68;;
74245;SDS011;62601;51.044;13.788;2022-12-18T08:02:50;15.13;;;7.90;;
74245;SDS011;62601;51.044;13.788;2022-12-18T08:05:12;19.40;;;9.45;;
74245;SDS011;62601;51.044;13.788;2022-12-18T08:07:32;16.02;;;8.65;;
74245;SDS011;62601;51.044;13.788;2022-12-18T08:09:53;24.00;;;9.32;;
74245;SDS011;62601;51.044;13.788;2022-12-18T08:12:14;26.48;;;11.55;;
74245;SDS011;62601;51.044;13.788;2022-12-18T08:14:35;17.67;;;8.75;;
74245;SDS011;62601;51.044;13.788;2022-12-18T08:16:56;16.80;;;10.13;;
74245;SDS011;62601;51.044;13.788;2022-12-18T08:19:18;19.27;;;9.45;;
74245;SDS011;62601;51.044;13.788;2022-12-18T08:21:40;22.73;;;9.68;;
74245;SDS011;62601;51.044;13.788;2022-12-18T08:24:01;20.23;;;9.98;;
74245;SDS011;62601;51.044;13.788;2022-12-18T08:26:23;22.45;;;9.82;;
74245;SDS011;62601;51.044;13.788;2022-12-18T08:28:45;22.15;;;10.48;;
74245;SDS011;62601;51.044;13.788;2022-12-18T08:31:06;19.10;;;10.63;;
74245;SDS011;62601;51.044;13.788;2022-12-18T08:33:29;22.35;;;11.13;;
74245;SDS011;62601;51.044;13.788;2022-12-18T08:35:51;22.73;;;11.48;;
74245;SDS011;62601;51.044;13.788;2022-12-18T08:38:12;21.23;;;11.20;;
74245;SDS011;62601;51.044;13.788;2022-12-18T08:40:34;24.15;;;11.75;;
74245;SDS011;62601;51.044;13.788;2022-12-18T08:42:55;22.40;;;10.60;;
74245;SDS011;62601;51.044;13.788;2022-12-18T08:45:17;21.70;;;10.60;;
74245;SDS011;62601;51.044;13.788;2022-12-18T08:47:38;25.58;;;11.18;;
74245;SDS011;62601;51.044;13.788;2022-12-18T08:49:58;22.27;;;12.55;;
74245;SDS011;62601;51.044;13.788;2022-12-18T08:52:19;22.83;;;12.23;;
74245;SDS011;62601;51.044;13.788;2022-12-18T08:54:40;24.95;;;11.60;;
74245;SDS011;62601;51.044;13.788;2022-12-18T08:57:01;21.15;;;11.93;;
74245;SDS011;62601;51.044;13.788;2022-12-18T08:59:23;24.90;;;12.02;;
74245;SDS011;62601;51.044;13.788;2022-12-18T09:01:45;26.85;;;12.68;;
74245;SDS011;62601;51.044;13.788;2022-12-18T09:04:07;27.70;;;13.00;;
74245;SDS011;62601;51.044;13.788;2022-12-18T09:06:29;26.55;;;12.40;;
74245;SDS011;62601;51.044;13.788;2022-12-18T09:08:50;29.42;;;12.63;;
74245;SDS011;62601;51.044;13.788;2022-12-18T09:11:15;29.95;;;13.63;;
74245;SDS011;62601;51.044;13.788;2022-12-18T09:13:37;22.25;;;12.45;;
74245;SDS011;62601;51.044;13.788;2022-12-18T09:15:58;25.52;;;12.95;;
74245;SDS011;62601;51.044;13.788;2022-12-18T09:18:19;27.85;;;13.77;;
74245;SDS011;62601;51.044;13.788;2022-12-18T09:20:41;27.98;;;14.65;;
74245;SDS011;62601;51.044;13.788;2022-12-18T09:23:01;30.70;;;14.63;;
74245;SDS011;62601;51.044;13.788;2022-12-18T09:25:22;31.17;;;14.50;;
74245;SDS011;62601;51.044;13.788;2022-12-18T09:27:42;28.42;;;14.40;;
74245;SDS011;62601;51.044;13.788;2022-12-18T09:30:03;32.92;;;16.15;;
74245;SDS011;62601;51.044;13.788;2022-12-18T09:32:24;31.23;;;14.98;;
74245;SDS011;62601;51.044;13.788;2022-12-18T09:34:45;32.38;;;15.20;;
74245;SDS011;62601;51.044;13.788;2022-12-18T09:37:06;32.08;;;14.95;;
74245;SDS011;62601;51.044;13.788;2022-12-18T09:39:28;48.38;;;18.15;;
74245;SDS011;62601;51.044;13.788;2022-12-18T09:41:54;36.53;;;16.50;;
74245;SDS011;62601;51.044;13.788;2022-12-18T09:44:34;34.47;;;18.80;;
74245;SDS011;62601;51.044;13.788;2022-12-18T09:47:01;32.05;;;15.68;;
74245;SDS011;62601;51.044;13.788;2022-12-18T09:49:34;36.20;;;17.05;;
74245;SDS011;62601;51.044;13.788;2022-12-18T09:52:11;39.63;;;20.58;;
74245;SDS011;62601;51.044;13.788;2022-12-18T09:54:35;35.92;;;16.33;;
74245;SDS011;62601;51.044;13.788;2022-12-18T09:56:59;32.38;;;15.40;;
74245;SDS011;62601;51.044;13.788;2022-12-18T10:01:42;33.95;;;15.25;;
74245;SDS011;62601;51.044;13.788;2022-12-18T10:04:05;26.77;;;13.95;;
74245;SDS011;62601;51.044;13.788;2022-12-18T10:06:32;31.55;;;15.40;;
74245;SDS011;62601;51.044;13.788;2022-12-18T10:13:39;31.45;;;14.43;;
74245;SDS011;62601;51.044;13.788;2022-12-18T10:19:01;30.73;;;14.85;;
74245;SDS011;62601;51.044;13.788;2022-12-18T10:24:34;28.02;;;15.18;;
74245;SDS011;62601;51.044;13.788;2022-12-18T10:26:59;32.25;;;15.30;;
74245;SDS011;62601;51.044;13.788;2022-12-18T10:29:28;30.48;;;15.10;;
74245;SDS011;62601;51.044;13.788;2022-12-18T10:31:49;30.55;;;15.15;;
74245;SDS011;62601;51.044;13.788;2022-12-18T10:34:10;32.22;;;14.68;;
74245;SDS011;62601;51.044;13.788;2022-12-18T10:36:31;29.00;;;14.52;;
74245;SDS011;62601;51.044;13.788;2022-12-18T10:39:13;31.20;;;15.32;;
74245;SDS011;62601;51.044;13.788;2022-12-18T10:41:37;29.83;;;13.73;;
74245;SDS011;62601;51.044;13.788;2022-12-18T10:46:37;31.27;;;15.00;;
74245;SDS011;62601;51.044;13.788;2022-12-18T10:49:02;27.80;;;13.63;;
74245;SDS011;62601;51.044;13.788;2022-12-18T10:53:50;32.38;;;14.30;;
74245;SDS011;62601;51.044;13.788;2022-12-18T10:56:12;32.97;;;14.48;;
74245;SDS011;62601;51.044;13.788;2022-12-18T10:58:37;28.52;;;14.63;;
74245;SDS011;62601;51.044;13.788;2022-12-18T11:01:14;31.67;;;15.15;;
74245;SDS011;62601;51.044;13.788;2022-12-18T11:06:29;35.30;;;14.85;;
74245;SDS011;62601;51.044;13.788;2022-12-18T11:09:02;31.75;;;16.20;;
74245;SDS011;62601;51.044;13.788;2022-12-18T11:11:25;32.53;;;16.20;;
74245;SDS011;62601;51.044;13.788;2022-12-18T11:14:02;33.85;;;18.58;;
74245;SDS011;62601;51.044;13.788;2022-12-18T11:16:23;35.03;;;15.75;;
74245;SDS011;62601;51.044;13.788;2022-12-18T11:18:44;32.28;;;15.73;;
74245;SDS011;62601;51.044;13.788;2022-12-18T11:21:06;34.20;;;15.20;;
74245;SDS011;62601;51.044;13.788;2022-12-18T11:23:31;28.42;;;15.13;;
74245;SDS011;62601;51.044;13.788;2022-12-18T11:25:52;34.00;;;15.57;;
74245;SDS011;62601;51.044;13.788;2022-12-18T11:33:53;30.83;;;14.48;;
74245;SDS011;62601;51.044;13.788;2022-12-18T11:36:16;31.67;;;14.20;;
74245;SDS011;62601;51.044;13.788;2022-12-18T11:38:37;33.47;;;15.75;;
74245;SDS011;62601;51.044;13.788;2022-12-18T11:41:04;27.10;;;14.55;;
74245;SDS011;62601;51.044;13.788;2022-12-18T11:43:31;30.98;;;14.60;;
74245;SDS011;62601;51.044;13.788;2022-12-18T11:46:14;28.70;;;14.43;;
74245;SDS011;62601;51.044;13.788;2022-12-18T11:48:57;30.30;;;14.20;;
74245;SDS011;62601;51.044;13.788;2022-12-18T11:51:26;27.50;;;15.10;;
74245;SDS011;62601;51.044;13.788;2022-12-18T11:53:51;32.90;;;15.00;;
74245;SDS011;62601;51.044;13.788;2022-12-18T11:56:30;30.75;;;14.32;;
74245;SDS011;62601;51.044;13.788;2022-12-18T11:58:57;30.38;;;14.07;;
74245;SDS011;62601;51.044;13.788;2022-12-18T12:01:26;36.08;;;15.15;;
74245;SDS011;62601;51.044;13.788;2022-12-18T12:09:16;30.30;;;14.80;;
74245;SDS011;62601;51.044;13.788;2022-12-18T12:14:34;27.08;;;14.65;;
74245;SDS011;62601;51.044;13.788;2022-12-18T12:22:25;27.75;;;13.25;;
74245;SDS011;62601;51.044;13.788;2022-12-18T12:30:23;27.27;;;14.30;;
74245;SDS011;62601;51.044;13.788;2022-12-18T12:32:57;27.10;;;14.40;;
74245;SDS011;62601;51.044;13.788;2022-12-18T12:35:24;27.92;;;14.20;;
74245;SDS011;62601;51.044;13.788;2022-12-18T12:40:17;26.27;;;12.95;;
74245;SDS011;62601;51.044;13.788;2022-12-18T12:42:50;22.63;;;12.55;;
74245;SDS011;62601;51.044;13.788;2022-12-18T12:45:26;21.90;;;13.15;;
74245;SDS011;62601;51.044;13.788;2022-12-18T12:47:47;26.85;;;14.25;;
74245;SDS011;62601;51.044;13.788;2022-12-18T12:50:14;28.13;;;14.13;;
74245;SDS011;62601;51.044;13.788;2022-12-18T12:52:44;28.58;;;14.95;;
74245;SDS011;62601;51.044;13.788;2022-12-18T12:55:07;28.17;;;14.82;;
74245;SDS011;62601;51.044;13.788;2022-12-18T12:57:34;27.42;;;13.52;;
74245;SDS011;62601;51.044;13.788;2022-12-18T13:00:10;28.73;;;14.55;;
74245;SDS011;62601;51.044;13.788;2022-12-18T13:02:56;27.20;;;13.63;;
74245;SDS011;62601;51.044;13.788;2022-12-18T13:05:29;27.58;;;13.57;;
74245;SDS011;62601;51.044;13.788;2022-12-18T13:08:00;22.23;;;13.45;;
74245;SDS011;62601;51.044;13.788;2022-12-18T13:10:32;30.13;;;14.55;;
74245;SDS011;62601;51.044;13.788;2022-12-18T13:13:00;29.08;;;15.05;;
74245;SDS011;62601;51.044;13.788;2022-12-18T13:15:42;28.98;;;13.73;;
74245;SDS011;62601;51.044;13.788;2022-12-18T13:18:05;26.00;;;14.18;;
74245;SDS011;62601;51.044;13.788;2022-12-18T13:20:32;28.33;;;14.48;;
74245;SDS011;62601;51.044;13.788;2022-12-18T13:22:53;26.42;;;13.35;;
74245;SDS011;62601;51.044;13.788;2022-12-18T13:25:33;28.38;;;13.68;;
74245;SDS011;62601;51.044;13.788;2022-12-18T13:27:57;32.17;;;15.57;;
74245;SDS011;62601;51.044;13.788;2022-12-18T13:37:55;32.25;;;15.43;;
74245;SDS011;62601;51.044;13.788;2022-12-18T13:40:38;33.33;;;14.93;;
74245;SDS011;62601;51.044;13.788;2022-12-18T13:43:00;26.98;;;13.63;;
74245;SDS011;62601;51.044;13.788;2022-12-18T13:48:29;26.38;;;14.93;;
74245;SDS011;62601;51.044;13.788;2022-12-18T13:50:56;29.27;;;13.20;;
74245;SDS011;62601;51.044;13.788;2022-12-18T13:53:28;26.13;;;13.70;;
74245;SDS011;62601;51.044;13.788;2022-12-18T13:55:50;22.73;;;11.48;;
74245;SDS011;62601;51.044;13.788;2022-12-18T13:58:11;22.98;;;11.27;;
74245;SDS011;62601;51.044;13.788;2022-12-18T14:00:33;27.70;;;12.55;;
74245;SDS011;62601;51.044;13.788;2022-12-18T14:02:55;22.05;;;12.02;;
74245;SDS011;62601;51.044;13.788;2022-12-18T14:05:23;22.50;;;11.13;;
74245;SDS011;62601;51.044;13.788;2022-12-18T14:07:44;18.73;;;10.88;;
74245;SDS011;62601;51.044;13.788;2022-12-18T14:10:11;22.95;;;12.02;;
74245;SDS011;62601;51.044;13.788;2022-12-18T14:12:34;23.48;;;12.93;;
74245;SDS011;62601;51.044;13.788;2022-12-18T14:14:58;22.08;;;11.43;;
74245;SDS011;62601;51.044;13.788;2022-12-18T14:17:22;23.30;;;11.07;;
74245;SDS011;62601;51.044;13.788;2022-12-18T14:19:47;19.10;;;11.45;;
74245;SDS011;62601;51.044;13.788;2022-12-18T14:22:17;21.45;;;10.95;;
74245;SDS011;62601;51.044;13.788;2022-12-18T14:24:38;22.90;;;10.27;;
74245;SDS011;62601;51.044;13.788;2022-12-18T14:27:12;21.85;;;11.13;;
74245;SDS011;62601;51.044;13.788;2022-12-18T14:29:34;24.38;;;11.93;;
74245;SDS011;62601;51.044;13.788;2022-12-18T14:32:05;27.50;;;13.52;;
74245;SDS011;62601;51.044;13.788;2022-12-18T14:34:30;23.60;;;11.93;;
74245;SDS011;62601;51.044;13.788;2022-12-18T14:36:54;23.05;;;12.00;;
74245;SDS011;62601;51.044;13.788;2022-12-18T14:39:16;24.27;;;11.23;;
74245;SDS011;62601;51.044;13.788;2022-12-18T14:41:38;20.00;;;10.18;;
74245;SDS011;62601;51.044;13.788;2022-12-18T14:44:05;24.27;;;12.00;;
74245;SDS011;62601;51.044;13.788;2022-12-18T14:46:35;20.65;;;10.90;;
74245;SDS011;62601;51.044;13.788;2022-12-18T14:48:57;22.27;;;11.10;;
74245;SDS011;62601;51.044;13.788;2022-12-18T14:51:19;18.67;;;10.18;;
74245;SDS011;62601;51.044;13.788;2022-12-18T14:56:22;23.50;;;12.10;;
74245;SDS011;62601;51.044;13.788;2022-12-18T14:58:48;20.92;;;10.90;;
74245;SDS011;62601;51.044;13.788;2022-12-18T15:01:17;26.50;;;11.88;;
74245;SDS011;62601;51.044;13.788;2022-12-18T15:03:42;22.48;;;11.38;;
74245;SDS011;62601;51.044;13.788;2022-12-18T15:06:55;25.20;;;12.13;;
74245;SDS011;62601;51.044;13.788;2022-12-18T15:09:02;24.50;;;11.43;;
74245;SDS011;62601;51.044;13.788;2022-12-18T15:11:35;26.25;;;12.63;;
74245;SDS011;62601;51.044;13.788;2022-12-18T15:13:57;24.23;;;11.75;;
74245;SDS011;62601;51.044;13.788;2022-12-18T15:16:18;26.88;;;12.52;;
74245;SDS011;62601;51.044;13.788;2022-12-18T15:18:41;24.30;;;10.70;;
74245;SDS011;62601;51.044;13.788;2022-12-18T15:21:09;28.98;;;12.35;;
74245;SDS011;62601;51.044;13.788;2022-12-18T15:23:49;21.95;;;12.02;;